LFBU/ANG METAR and TAF weather

Enter ICAO airport designator
Station Type Date Time Source
LFBU METAR 2021/03/03 20:30 UTC NOAA

LFBU 032030Z AUTO 18002KT CAVOK 12/07 Q1027 NOSIG


Station Type Date Time Source
LFBU Decoded METAR 2021/03/03 20:30 UTC NOAA

Station name not available
Mar 03, 2021 - 03:30 PM EST / 2021.03.03 2030 UTC
Wind: from the S (180 degrees) at 2 MPH (2 KT):0
Visibility: greater than 7 mile(s):0
Temperature: 53 F (12 C)
Dew Point: 44 F (7 C)
Relative Humidity: 71%
Pressure (altimeter): 30.33 in. Hg (1027 hPa)
ob: LFBU 032030Z AUTO 18002KT CAVOK 12/07 Q1027 NOSIG
cycle: 20

Station Type Date Time Source
LFBU TAF 2021/03/03 18:00 UTC NOAA

TAF LFBU 031700Z 0318/0418 VRB03KT 9999 SCT040 PROB40
TEMPO 0323/0408 3000 BR PROB30
TEMPO 0408/0411 BKN008
BECMG 0411/0413 03010KT

Example: see airport list